Cobden, IL (62920)

4:03 AM CDT on October 14, 2019 (GMT -0500)
Eastern Star | | Change Station
Active Advisory: Flood Warning

Elev 610 ft 37.62 °N, 89.21 °W | Updated 18 minutes ago

Clear
Clear
43 °F
Feels Like 43 °F
N
0
Wind Variable Wind from NNW
Gusts 0.0 mph

Today
High -- | Low -- °F
--% Chance of Precip.
Yesterday
High -- | Low -- °F
Precip. -- in
Pressure 30.04 in
Visibility 10.0 miles
Clouds Clear
Windchill 43 °F
Dew Point 42 °F
Humidity 96%
Rainfall 0.00 in
Snow Depth Not available.
7:04 AM 6:21 PM
Full, 100% visible
METAR KMDH 140852Z AUTO 00000KT 10SM CLR 05/03 A3004 RMK AO2 SLP172 T00500033 51003
Pressure 30.04 in
Visibility 10.0 miles
Clouds Clear
Windchill 43 °F
Dew Point 42 °F
Humidity 96%
Rainfall 0.00 in
Snow Depth Not available.
7:04 AM 6:21 PM
Full, 100% visible
METAR KMDH 140852Z AUTO 00000KT 10SM CLR 05/03 A3004 RMK AO2 SLP172 T00500033 51003

Get Your Daily Forecast Email!

Thanks for signing up!

Be on the lookout for a verification email in your inbox.

You'll start receiving severe weather alerts in your inbox..

×

10-Day Weather Forecast

Almanac

Astronomy

Oct. 14, 2019 Rise Set
Actual Time
Civil Twilight
Nautical Twilight
Astronomical Twilight
Moon
Length of Visible Light
Length of Day
Tomorrow will be .
, % of the Moon is Illuminated

Today's Extremes

State Highs State Lows

Community

WunderPhotos

Category 6

Welcome to Category 6. This is the collective home for Weather Underground's featured writeups by Dr. Jeff Masters (right), Bob Henson (left), Chris Burt, and other regular contributors.

Nearby

Air Quality

  Air Quality AQ Index Pollutant
Not available.

Snow Depth

Station Depth Elevation

Earthquake Activity

City Distance Mag. Time & Date
Minimum magnitude displayed is 2.5.

Coastal Water Temperatures

Place Temperature

Stations

Nearby Weather Stations

Station Location Temp. Windchill Dew Point Humidity Wind Precip. Elev Updated Type
                   

Watches & Warnings

Flood Warning
Issued: 8:03 PM CDT Oct. 13, 2019 – National Weather Service

The Flood Warning continues for
the Mississippi River at Cape Girardeau
* until further notice.
* At 7:30 PM Sunday the stage was 35.6 feet.
* Flood stage is 32.0 feet.
* Minor flooding is occurring and minor flooding is forecast.
* Forecast... the river will continue rising to near 35.8 feet by
early tomorrow afternoon then begin falling.
* Impact... at 36.0 feet... the flood gate on Themis street closes.


Lat... Lon 3769 8959 3769 8935 3744 8934 3725 8941
      3723 8959 3732 8963